createdAt,value
2017-06-28T00:07:26.800Z,992
2017-06-28T00:17:35.948Z,991.8
2017-06-28T00:27:45.174Z,991.6
2017-06-28T00:37:54.375Z,991.5
2017-06-28T00:48:03.577Z,991.2
2017-06-28T00:58:12.830Z,991
2017-06-28T01:08:22.045Z,990.9
2017-06-28T01:18:31.317Z,990.8
2017-06-28T01:28:40.618Z,990.8
2017-06-28T01:38:49.896Z,990.8
2017-06-28T01:48:59.203Z,990.7
2017-06-28T01:59:08.528Z,990.5
2017-06-28T02:09:17.870Z,990.4
2017-06-28T02:19:27.145Z,990.2
2017-06-28T02:29:36.404Z,989.9
2017-06-28T02:39:45.766Z,989.9
2017-06-28T02:49:54.851Z,989.9
2017-06-28T03:00:04.047Z,989.8
2017-06-28T03:10:13.280Z,989.8
2017-06-28T03:20:22.453Z,989.6
2017-06-28T03:30:31.650Z,989.5
2017-06-28T03:40:40.829Z,989.3
2017-06-28T03:50:50.042Z,989.2
2017-06-28T04:00:59.169Z,989.4
2017-06-28T04:11:08.260Z,989.3
2017-06-28T04:21:17.409Z,989
2017-06-28T04:31:26.492Z,989
2017-06-28T04:41:35.572Z,988.9
2017-06-28T04:51:44.614Z,988.9
2017-06-28T05:01:53.542Z,988.7
2017-06-28T05:12:02.409Z,988.7
2017-06-28T05:22:11.280Z,988.7
2017-06-28T05:32:20.185Z,988.7
2017-06-28T05:42:29.182Z,988.7
2017-06-28T05:52:38.102Z,988.6
2017-06-28T06:02:47.040Z,988.7
2017-06-28T06:12:55.980Z,988.7
2017-06-28T06:23:04.788Z,988.7
2017-06-28T06:33:13.544Z,988.6
2017-06-28T06:43:22.380Z,988.4
2017-06-28T06:53:31.213Z,988.4
2017-06-28T07:03:39.895Z,988.4
2017-06-28T07:13:48.505Z,988.4
2017-06-28T07:23:57.117Z,988.3
2017-06-28T07:34:05.694Z,988.3
2017-06-28T07:44:14.099Z,988.2
2017-06-28T07:54:22.409Z,988.3
2017-06-28T08:04:30.721Z,988.4
2017-06-28T08:14:38.837Z,988.2
2017-06-28T08:24:46.811Z,988.2
2017-06-28T08:34:55.011Z,988.2
2017-06-28T08:45:03.228Z,988.1
2017-06-28T08:55:11.284Z,988.1
2017-06-28T09:05:19.380Z,988.1
2017-06-28T09:15:27.378Z,987.9
2017-06-28T09:25:35.147Z,987.9
2017-06-28T09:35:42.832Z,987.8
2017-06-28T09:45:50.536Z,987.7
2017-06-28T09:55:58.211Z,987.6
2017-06-28T10:06:05.760Z,987.5
2017-06-28T10:16:13.458Z,987.4
2017-06-28T10:26:21.350Z,987.2
2017-06-28T10:36:29.508Z,987.2
2017-06-28T10:46:37.798Z,987.1
2017-06-28T10:56:46.230Z,987.2
